Time;durP1;ratioP1;P1;durP2;ratioP2;P2;SDS_P1;SDS_P2;PMS_P1;PMS_P2;Temp;Humidity;BMP_temperature;BMP_pressure;BME280_temperature;BME280_humidity;BME280_pressure;Samples;Min_cycle;Max_cycle;Signal;HPM_P1;HPM_P2
2020/12/06 00:01:31;;;;;;;20.13;17.42;;;6.40;92.40;13.60;98637.00;;;;5034133;28;21030;-67
2020/12/06 00:03:57;;;;;;;19.03;16.07;;;6.40;92.40;13.60;98614.00;;;;5049834;28;20257;-68
2020/12/06 00:06:22;;;;;;;20.00;15.73;;;6.40;92.40;13.80;98618.00;;;;5049818;28;20193;-67
2020/12/06 00:08:51;;;;;;;18.80;16.80;;;6.40;92.40;13.90;98618.00;;;;5033579;28;20636;-69
2020/12/06 00:11:18;;;;;;;18.33;16.42;;;6.40;92.40;13.70;98620.00;;;;5051281;28;20280;-68
2020/12/06 00:13:44;;;;;;;21.60;17.13;;;6.40;92.40;13.70;98613.00;;;;5032811;28;20260;-69
2020/12/06 00:16:19;;;;;;;18.60;16.40;;;6.40;92.40;13.80;98611.00;;;;5033890;28;20716;-68
2020/12/06 00:18:46;;;;;;;20.30;16.80;;;6.40;92.40;13.70;98610.00;;;;5017003;28;20527;-68
2020/12/06 00:21:16;;;;;;;18.45;16.42;;;6.40;92.40;13.70;98608.00;;;;5049821;28;20284;-67
2020/12/06 00:23:41;;;;;;;19.05;16.80;;;6.40;92.50;13.90;98610.00;;;;5050115;28;20700;-68
2020/12/06 00:26:07;;;;;;;17.27;15.43;;;6.40;92.50;13.60;98611.00;;;;5050076;28;20292;-68
2020/12/06 00:28:33;;;;;;;21.30;17.33;;;6.40;92.50;13.70;98614.00;;;;5049008;28;20228;-68
2020/12/06 00:30:59;;;;;;;20.30;18.02;;;6.40;92.80;13.90;98609.00;;;;5033655;28;20642;-68
2020/12/06 00:33:25;;;;;;;21.23;19.00;;;6.40;92.40;13.80;98612.00;;;;5049327;28;20209;-68
2020/12/06 00:35:50;;;;;;;19.20;15.83;;;6.40;92.40;13.90;98609.00;;;;5050844;28;20854;-68
2020/12/06 00:38:16;;;;;;;18.67;16.00;;;6.40;92.40;14.00;98603.00;;;;5049159;28;21017;-69
2020/12/06 00:40:42;;;;;;;19.60;16.97;;;6.40;92.40;14.00;98604.00;;;;5033173;28;20237;-68
2020/12/06 00:43:07;;;;;;;19.23;16.73;;;6.40;92.50;13.80;98624.00;;;;5049231;28;20201;-67
2020/12/06 00:45:33;;;;;;;19.50;17.00;;;6.40;92.50;13.90;98603.00;;;;5048848;28;20186;-68
2020/12/06 00:47:59;;;;;;;17.20;15.43;;;6.40;92.50;13.90;98613.00;;;;5049462;28;20284;-68
2020/12/06 00:50:24;;;;;;;18.70;16.70;;;6.40;92.50;13.80;98600.00;;;;5049859;28;20305;-68
2020/12/06 00:52:50;;;;;;;21.37;17.30;;;6.40;92.50;13.90;98602.00;;;;5050284;28;20186;-68
2020/12/06 00:55:16;;;;;;;18.17;15.93;;;6.40;92.50;13.90;98606.00;;;;5032098;28;20174;-68
2020/12/06 00:57:41;;;;;;;17.93;16.13;;;6.40;92.90;13.90;98621.00;;;;5050414;28;20522;-68
2020/12/06 01:00:09;;;;;;;17.90;16.03;;;6.40;92.50;14.10;98609.00;;;;5032543;28;20182;-69
2020/12/06 01:02:35;;;;;;;17.65;15.65;;;6.40;92.60;14.00;98598.00;;;;5048619;28;20205;-68
2020/12/06 01:05:00;;;;;;;21.17;17.60;;;6.40;92.50;13.90;98600.00;;;;5038088;28;20553;-68
2020/12/06 01:07:26;;;;;;;18.13;15.53;;;6.40;92.50;13.90;98607.00;;;;5031959;28;20205;-67
2020/12/06 01:09:52;;;;;;;19.95;17.35;;;6.40;92.50;13.80;98602.00;;;;5048373;28;20213;-68
2020/12/06 01:12:18;;;;;;;19.87;16.27;;;6.40;92.50;14.00;98609.00;;;;5032620;28;20198;-68
2020/12/06 01:14:44;;;;;;;20.15;17.25;;;6.40;92.50;13.70;98586.00;;;;5032713;28;20257;-68
2020/12/06 01:17:10;;;;;;;18.88;15.70;;;6.40;92.50;14.00;98606.00;;;;5014413;28;20194;-68
2020/12/06 01:19:36;;;;;;;19.20;16.83;;;6.40;92.50;13.90;98597.00;;;;5048913;28;20284;-69
2020/12/06 01:22:02;;;;;;;18.40;16.07;;;6.40;92.60;13.80;98593.00;;;;5049342;28;20202;-68
2020/12/06 01:24:27;;;;;;;19.23;16.80;;;6.40;92.60;14.00;98585.00;;;;5048311;28;20209;-68
2020/12/06 01:26:53;;;;;;;19.07;17.00;;;6.40;92.60;13.90;98588.00;;;;5032871;28;20198;-68
2020/12/06 01:29:19;;;;;;;17.20;15.40;;;6.40;92.60;13.90;98600.00;;;;5048722;28;20221;-68
2020/12/06 01:31:46;;;;;;;20.00;16.87;;;6.40;92.60;13.90;98595.00;;;;5048133;28;20743;-68
2020/12/06 01:34:12;;;;;;;20.00;17.75;;;6.40;92.90;13.90;98596.00;;;;5015937;28;20602;-68
2020/12/06 01:36:38;;;;;;;19.42;17.42;;;6.50;92.60;13.70;98604.00;;;;4999678;28;20202;-68
2020/12/06 01:39:04;;;;;;;19.50;16.40;;;6.40;92.60;13.80;98603.00;;;;5031635;28;20200;-68
2020/12/06 01:41:30;;;;;;;19.13;17.00;;;6.40;92.60;13.70;98599.00;;;;5049521;28;20285;-67
2020/12/06 01:43:56;;;;;;;20.70;18.50;;;6.40;92.60;13.90;98613.00;;;;5049630;28;20208;-68
2020/12/06 01:46:23;;;;;;;19.65;17.60;;;6.40;92.60;14.10;98609.00;;;;5047745;28;20430;-68
2020/12/06 01:48:50;;;;;;;19.92;17.52;;;6.40;92.60;13.90;98615.00;;;;5048127;28;20268;-67
2020/12/06 01:51:17;;;;;;;20.60;17.05;;;6.40;92.60;13.80;98606.00;;;;5015073;28;20285;-67
2020/12/06 01:53:44;;;;;;;19.27;17.08;;;6.50;92.70;13.90;98601.00;;;;5015510;28;20239;-68
2020/12/06 01:56:10;;;;;;;20.38;17.75;;;6.50;92.60;14.20;98601.00;;;;5015564;28;20296;-68
2020/12/06 01:58:35;;;;;;;19.77;17.67;;;6.50;92.70;14.00;98596.00;;;;5034963;28;20265;-67
2020/12/06 02:01:01;;;;;;;19.37;16.43;;;6.40;92.70;13.90;98597.00;;;;5035854;28;20211;-68
2020/12/06 02:03:27;;;;;;;19.27;17.20;;;6.40;92.60;13.90;98607.00;;;;5035750;28;20704;-67
2020/12/06 02:05:53;;;;;;;20.43;16.20;;;6.50;92.70;13.90;98588.00;;;;5035468;28;20197;-67
2020/12/06 02:08:18;;;;;;;18.53;16.33;;;6.50;92.70;14.00;98590.00;;;;5052158;28;20200;-67
2020/12/06 02:10:44;;;;;;;18.87;16.17;;;6.50;92.70;14.00;98594.00;;;;5053661;28;20562;-68
2020/12/06 02:13:10;;;;;;;19.07;16.97;;;6.50;92.70;14.00;98577.00;;;;5051757;28;20661;-68
2020/12/06 02:15:36;;;;;;;20.57;16.70;;;6.50;93.00;14.20;98579.00;;;;5019515;28;20314;-67
2020/12/06 02:18:02;;;;;;;19.42;16.33;;;6.50;92.70;14.10;98590.00;;;;5036205;28;20663;-68
2020/12/06 02:20:27;;;;;;;19.70;17.60;;;6.50;92.70;14.00;98587.00;;;;5018604;28;20271;-68
2020/12/06 02:22:53;;;;;;;19.90;17.80;;;6.50;92.70;13.90;98601.00;;;;5052010;28;20774;-68
2020/12/06 02:25:19;;;;;;;19.70;17.60;;;6.50;92.70;14.00;98597.00;;;;5053651;28;20228;-67
2020/12/06 02:27:44;;;;;;;21.90;18.10;;;6.50;92.70;14.00;98604.00;;;;5051813;28;20182;-68
2020/12/06 02:30:10;;;;;;;19.00;17.00;;;6.50;92.70;14.00;98603.00;;;;5051890;28;20884;-68
2020/12/06 02:32:36;;;;;;;19.90;16.50;;;6.50;92.70;14.10;98612.00;;;;5052073;28;20204;-68
2020/12/06 02:35:02;;;;;;;19.63;17.43;;;6.50;92.70;14.10;98599.00;;;;5051915;28;20649;-68
2020/12/06 02:37:28;;;;;;;20.42;18.13;;;6.50;92.70;14.00;98594.00;;;;5051897;28;20198;-68
2020/12/06 02:39:53;;;;;;;19.40;17.07;;;6.50;92.70;13.90;98601.00;;;;5051624;28;20182;-69
2020/12/06 02:42:19;;;;;;;20.63;17.57;;;6.50;92.70;14.00;98605.00;;;;5051363;28;20198;-68
2020/12/06 02:44:45;;;;;;;19.67;17.63;;;6.50;92.70;14.00;98597.00;;;;5053153;28;20186;-68
2020/12/06 02:47:11;;;;;;;18.97;16.93;;;6.50;92.70;13.90;98604.00;;;;5018327;28;20245;-69
2020/12/06 02:49:39;;;;;;;19.33;16.73;;;6.50;92.70;13.90;98612.00;;;;5050900;28;20464;-68
2020/12/06 02:52:09;;;;;;;18.88;16.98;;;6.50;92.70;14.10;98609.00;;;;5052724;28;20221;-69
2020/12/06 02:54:34;;;;;;;22.00;18.45;;;6.50;92.70;14.00;98602.00;;;;5034986;28;20594;-68
2020/12/06 02:57:00;;;;;;;20.43;18.30;;;6.50;92.70;14.00;98598.00;;;;5051512;28;20206;-69
2020/12/06 02:59:26;;;;;;;19.33;17.23;;;6.50;92.70;14.10;98614.00;;;;5034773;28;20371;-68
2020/12/06 03:01:51;;;;;;;18.73;16.83;;;6.50;92.70;14.10;98606.00;;;;5050694;28;20438;-68
2020/12/06 03:04:17;;;;;;;18.67;16.67;;;6.50;92.70;14.00;98610.00;;;;5052399;28;20675;-68
2020/12/06 03:06:43;;;;;;;20.20;18.00;;;6.50;92.70;14.00;98605.00;;;;5052366;28;20264;-69
2020/12/06 03:09:08;;;;;;;20.53;18.33;;;6.50;92.70;14.10;98606.00;;;;5050933;28;20186;-69
2020/12/06 03:11:34;;;;;;;20.10;17.97;;;6.50;92.80;14.10;98600.00;;;;5049805;28;20210;-69
2020/12/06 03:14:00;;;;;;;20.07;18.00;;;6.50;92.80;14.00;98605.00;;;;5052319;28;20221;-68
2020/12/06 03:16:25;;;;;;;19.13;17.03;;;6.50;92.80;14.20;98600.00;;;;5051845;28;20213;-68
2020/12/06 03:18:51;;;;;;;18.27;16.10;;;6.50;92.80;14.20;98600.00;;;;5052394;28;20178;-68
2020/12/06 03:21:17;;;;;;;21.67;18.10;;;6.50;92.80;14.40;98608.00;;;;5034292;28;20541;-68
2020/12/06 03:23:43;;;;;;;23.30;18.40;;;6.50;92.80;14.30;98616.00;;;;5017628;28;20193;-69
2020/12/06 03:26:08;;;;;;;19.90;17.30;;;6.50;92.70;14.20;98614.00;;;;5050501;28;20209;-68
2020/12/06 03:28:34;;;;;;;19.77;17.63;;;6.50;92.80;14.20;98612.00;;;;5052340;28;20480;-68
2020/12/06 03:31:00;;;;;;;20.67;16.83;;;6.50;92.80;14.10;98596.00;;;;5051131;28;20244;-69
2020/12/06 03:33:25;;;;;;;19.77;17.63;;;6.50;92.80;14.20;98603.00;;;;5034538;28;20231;-69
2020/12/06 03:35:51;;;;;;;19.43;17.27;;;6.50;92.80;14.00;98606.00;;;;5050322;28;20209;-69
2020/12/06 03:38:17;;;;;;;20.37;18.23;;;6.50;92.80;14.20;98593.00;;;;5050476;28;20225;-68
2020/12/06 03:40:42;;;;;;;20.57;18.50;;;6.50;92.80;14.10;98604.00;;;;5050101;28;20248;-69
2020/12/06 03:43:08;;;;;;;21.33;18.47;;;6.50;92.80;14.30;98595.00;;;;5051072;28;20181;-69
2020/12/06 03:45:34;;;;;;;19.37;16.43;;;6.50;92.80;14.10;98589.00;;;;5033565;28;20189;-68
2020/12/06 03:48:00;;;;;;;20.50;18.13;;;6.50;92.70;14.30;98599.00;;;;5051903;28;20332;-68
2020/12/06 03:50:25;;;;;;;19.77;17.10;;;6.50;92.80;14.10;98607.00;;;;5033361;28;20206;-68
2020/12/06 03:52:51;;;;;;;20.70;17.33;;;6.50;92.80;14.20;98603.00;;;;5050190;28;20201;-68
2020/12/06 03:55:17;;;;;;;21.10;16.83;;;6.50;92.80;14.20;98605.00;;;;5051682;28;20424;-68
2020/12/06 03:57:43;;;;;;;20.07;18.03;;;6.50;92.80;14.30;98601.00;;;;5033291;28;20193;-68
2020/12/06 04:00:08;;;;;;;20.70;17.43;;;6.50;92.80;14.40;98613.00;;;;5050398;28;20182;-68
2020/12/06 04:02:34;;;;;;;20.20;18.10;;;6.50;92.80;14.20;98610.00;;;;5033883;28;20202;-68
2020/12/06 04:05:00;;;;;;;20.13;18.07;;;6.50;92.80;14.20;98601.00;;;;5050124;28;20498;-69
2020/12/06 04:07:26;;;;;;;19.37;17.27;;;6.50;92.80;14.20;98608.00;;;;5033615;28;20206;-68
2020/12/06 04:09:51;;;;;;;19.60;17.50;;;6.50;92.80;14.20;98605.00;;;;5049794;28;20224;-68
2020/12/06 04:12:17;;;;;;;22.03;19.10;;;6.50;92.80;14.40;98600.00;;;;5049736;28;20271;-68
2020/12/06 04:14:43;;;;;;;19.17;16.93;;;6.60;92.90;14.10;98599.00;;;;5050430;28;20289;-68
2020/12/06 04:17:08;;;;;;;19.63;17.53;;;6.60;92.80;14.20;98597.00;;;;5051087;28;20680;-68
2020/12/06 04:19:34;;;;;;;19.07;17.07;;;6.50;92.80;14.30;98590.00;;;;5032101;28;20179;-68
2020/12/06 04:22:05;;;;;;;17.80;16.00;;;6.50;92.80;14.30;98586.00;;;;5033309;28;20202;-68
2020/12/06 04:24:32;;;;;;;19.60;17.45;;;6.50;92.80;14.10;98601.00;;;;5018418;28;20289;-68
2020/12/06 04:26:58;;;;;;;20.13;18.02;;;6.50;92.80;14.10;98601.00;;;;5049072;28;20204;-68
2020/12/06 04:29:23;;;;;;;19.93;17.80;;;6.50;93.10;14.10;98592.00;;;;5049952;28;20226;-68
2020/12/06 04:31:49;;;;;;;20.33;18.10;;;6.50;92.80;14.20;98598.00;;;;5049139;28;20699;-68
2020/12/06 04:34:15;;;;;;;18.33;16.43;;;6.60;92.80;14.20;98601.00;;;;5049308;28;20182;-68
2020/12/06 04:36:40;;;;;;;18.80;16.77;;;6.50;92.80;14.10;98596.00;;;;5049510;28;20209;-68
2020/12/06 04:39:06;;;;;;;19.53;17.43;;;6.60;92.80;14.00;98616.00;;;;5016936;28;20644;-68
2020/12/06 04:41:32;;;;;;;19.40;17.17;;;6.50;92.70;14.10;98621.00;;;;5032132;28;20628;-68
2020/12/06 04:43:57;;;;;;;20.60;17.77;;;6.60;92.80;14.00;98620.00;;;;5050929;28;20178;-69
2020/12/06 04:46:24;;;;;;;19.37;16.47;;;6.60;92.80;14.10;98613.00;;;;5016107;28;20201;-68
2020/12/06 04:49:05;;;;;;;19.45;17.30;;;6.60;92.80;14.40;98612.00;;;;5016194;28;20452;-68
2020/12/06 04:51:40;;;;;;;18.98;16.85;;;6.60;93.20;14.30;98615.00;;;;5049194;28;20283;-68
2020/12/06 04:54:06;;;;;;;18.40;15.35;;;6.60;92.80;14.20;98614.00;;;;5034238;28;20248;-68
2020/12/06 04:56:32;;;;;;;20.92;18.73;;;6.60;92.80;14.10;98623.00;;;;5048542;28;20205;-68
2020/12/06 04:58:59;;;;;;;21.60;17.40;;;6.60;92.80;14.20;98624.00;;;;5032524;28;20289;-69
2020/12/06 05:01:37;;;;;;;19.83;16.58;;;6.60;92.80;14.30;98621.00;;;;5015831;28;20285;-68
2020/12/06 05:04:10;;;;;;;20.13;17.98;;;6.60;92.80;14.10;98621.00;;;;5049329;28;20232;-68
2020/12/06 05:06:39;;;;;;;19.73;17.27;;;6.60;92.80;14.10;98616.00;;;;5050362;28;20205;-68
2020/12/06 05:09:15;;;;;;;18.95;17.05;;;6.60;92.80;14.20;98623.00;;;;5032249;28;20185;-68
2020/12/06 05:11:43;;;;;;;19.92;17.75;;;6.60;92.80;14.10;98622.00;;;;5048719;28;20212;-68
2020/12/06 05:14:08;;;;;;;19.25;16.45;;;6.60;92.80;13.80;98612.00;;;;5033105;28;20178;-68
2020/12/06 05:16:35;;;;;;;20.13;17.93;;;6.60;92.80;14.00;98618.00;;;;5031693;28;20619;-68
2020/12/06 05:19:02;;;;;;;19.00;16.70;;;6.60;92.80;14.10;98605.00;;;;5032397;28;20479;-68
2020/12/06 05:21:35;;;;;;;20.75;18.52;;;6.60;92.80;14.30;98609.00;;;;5032095;28;20206;-68
2020/12/06 05:24:01;;;;;;;19.13;16.98;;;6.60;92.90;14.20;98613.00;;;;5031639;28;20212;-68
2020/12/06 05:26:28;;;;;;;19.65;17.50;;;6.60;92.80;14.00;98612.00;;;;5015991;28;20241;-68
2020/12/06 05:28:54;;;;;;;18.15;16.20;;;6.60;92.80;14.10;98613.00;;;;5048584;28;20336;-68
2020/12/06 05:31:21;;;;;;;22.38;18.35;;;6.60;92.80;14.10;98606.00;;;;5031080;28;20217;-69
2020/12/06 05:33:47;;;;;;;19.40;17.33;;;6.60;92.80;14.00;98628.00;;;;5048466;28;20257;-68
2020/12/06 05:36:13;;;;;;;20.88;17.65;;;6.60;92.80;14.00;98630.00;;;;5031728;28;20206;-68
2020/12/06 05:38:39;;;;;;;19.00;17.00;;;6.60;92.80;14.00;98616.00;;;;5015019;28;20229;-69
2020/12/06 05:41:07;;;;;;;19.57;17.57;;;6.60;92.90;14.00;98635.00;;;;5048330;28;20226;-68
2020/12/06 05:43:36;;;;;;;20.95;18.75;;;6.60;92.80;13.90;98630.00;;;;5048581;28;20280;-68
2020/12/06 05:46:11;;;;;;;19.17;17.10;;;6.60;92.80;14.10;98633.00;;;;5048391;28;20205;-69
2020/12/06 05:48:38;;;;;;;18.98;17.08;;;6.60;92.90;14.10;98639.00;;;;5048405;28;20204;-69
2020/12/06 05:51:04;;;;;;;19.58;17.42;;;6.60;92.90;14.00;98645.00;;;;5030984;28;20657;-69
2020/12/06 05:53:30;;;;;;;19.48;17.38;;;6.60;92.90;14.10;98649.00;;;;5049707;28;20732;-69
2020/12/06 05:56:18;;;;;;;19.50;17.45;;;6.60;92.90;14.00;98649.00;;;;5032288;28;20210;-69
2020/12/06 05:58:49;;;;;;;19.10;17.08;;;6.60;92.90;14.00;98656.00;;;;5047576;28;20264;-69
2020/12/06 06:01:15;;;;;;;19.40;17.27;;;6.60;92.90;14.00;98652.00;;;;5032098;28;20217;-69
2020/12/06 06:03:44;;;;;;;21.27;19.10;;;6.60;92.90;13.80;98652.00;;;;5048049;28;20205;-69
2020/12/06 06:06:38;;;;;;;19.10;17.20;;;6.60;92.90;14.00;98663.00;;;;5031110;28;20297;-69
2020/12/06 06:09:04;;;;;;;21.05;17.83;;;6.60;93.00;14.00;98661.00;;;;5034226;28;20178;-68
2020/12/06 06:11:31;;;;;;;20.27;18.07;;;6.60;92.90;13.90;98664.00;;;;5015143;28;20205;-68
2020/12/06 06:13:58;;;;;;;20.02;17.70;;;6.60;92.90;14.00;98660.00;;;;5031357;28;20247;-68
2020/12/06 06:16:26;;;;;;;19.13;17.13;;;6.60;92.90;14.00;98669.00;;;;5047882;28;20205;-69
2020/12/06 06:18:53;;;;;;;20.98;17.98;;;6.60;92.90;13.90;98658.00;;;;5031481;28;20179;-68
2020/12/06 06:21:23;;;;;;;21.48;18.48;;;6.60;92.90;14.00;98666.00;;;;5031635;28;20308;-68
2020/12/06 06:23:48;;;;;;;20.92;18.40;;;6.60;92.90;14.10;98667.00;;;;5032102;28;20182;-68
2020/12/06 06:26:16;;;;;;;21.33;19.13;;;6.60;92.90;14.00;98666.00;;;;5047670;28;20212;-68
2020/12/06 06:28:44;;;;;;;21.98;19.50;;;6.60;92.90;14.20;98660.00;;;;5015240;28;20246;-69
2020/12/06 06:31:14;;;;;;;20.80;18.75;;;6.60;92.90;13.80;98664.00;;;;5032017;28;20241;-68
2020/12/06 06:33:39;;;;;;;21.52;19.05;;;6.60;92.90;13.80;98653.00;;;;5047817;28;20171;-68
2020/12/06 06:36:08;;;;;;;20.83;18.63;;;6.60;92.90;14.20;98656.00;;;;4998714;28;20217;-69
2020/12/06 06:38:44;;;;;;;20.83;18.63;;;6.60;92.90;13.90;98679.00;;;;5015837;28;20185;-69
2020/12/06 06:41:10;;;;;;;20.50;18.30;;;6.60;92.90;13.90;98675.00;;;;5030920;28;20348;-68
2020/12/06 06:43:38;;;;;;;19.95;17.92;;;6.60;92.90;13.90;98671.00;;;;5049649;28;20185;-69
2020/12/06 06:46:10;;;;;;;20.38;18.20;;;6.60;92.90;14.10;98676.00;;;;5035732;28;20681;-68
2020/12/06 06:48:35;;;;;;;21.27;19.10;;;6.60;92.90;14.00;98676.00;;;;5034942;28;20518;-69
2020/12/06 06:51:03;;;;;;;20.37;18.10;;;6.60;92.90;13.90;98671.00;;;;5018697;28;20300;-68
2020/12/06 06:53:28;;;;;;;21.02;18.92;;;6.60;92.90;13.90;98689.00;;;;5050902;28;20209;-69
2020/12/06 06:55:54;;;;;;;21.23;17.97;;;6.60;92.90;14.00;98694.00;;;;5034894;28;20213;-68
2020/12/06 06:58:24;;;;;;;21.40;19.10;;;6.60;92.90;14.00;98680.00;;;;5051504;28;20444;-68
2020/12/06 07:00:50;;;;;;;22.90;20.17;;;6.70;92.90;14.10;98675.00;;;;5018673;28;20970;-68
2020/12/06 07:03:19;;;;;;;20.80;18.50;;;6.70;92.90;14.00;98688.00;;;;5034307;28;20174;-69
2020/12/06 07:05:45;;;;;;;21.40;19.15;;;6.60;92.90;14.00;98675.00;;;;5034594;28;20796;-69
2020/12/06 07:08:12;;;;;;;20.90;18.70;;;6.70;93.00;14.00;98687.00;;;;5050245;28;20754;-67
2020/12/06 07:10:39;;;;;;;20.73;18.52;;;6.70;93.00;14.00;98669.00;;;;5051554;28;20214;-69
2020/12/06 07:13:06;;;;;;;22.75;19.70;;;6.70;93.00;13.80;98665.00;;;;5034527;28;20252;-68
2020/12/06 07:15:32;;;;;;;22.13;19.83;;;6.70;92.90;13.90;98680.00;;;;5034275;28;20236;-69
2020/12/06 07:17:57;;;;;;;23.40;17.77;;;6.70;92.90;13.90;98671.00;;;;5034076;28;20249;-68
2020/12/06 07:20:24;;;;;;;21.30;19.00;;;6.70;92.90;14.10;98676.00;;;;5017798;28;20541;-68
2020/12/06 07:22:52;;;;;;;21.02;18.83;;;6.70;92.90;14.00;98663.00;;;;5051735;28;20529;-68
2020/12/06 07:25:19;;;;;;;22.20;19.90;;;6.70;92.90;14.00;98662.00;;;;5034957;28;20265;-68
2020/12/06 07:27:45;;;;;;;20.27;17.95;;;6.70;92.90;14.00;98663.00;;;;5034448;28;20181;-68
2020/12/06 07:30:13;;;;;;;21.20;19.00;;;6.70;92.90;14.00;98679.00;;;;5033408;28;20229;-68
2020/12/06 07:32:39;;;;;;;20.15;18.05;;;6.70;93.00;14.00;98670.00;;;;5033942;28;20477;-68
2020/12/06 07:35:05;;;;;;;20.93;18.83;;;6.70;92.90;13.80;98676.00;;;;5034510;28;20186;-68
2020/12/06 07:37:31;;;;;;;20.70;18.55;;;6.70;92.90;13.90;98676.00;;;;5050312;28;20958;-68
2020/12/06 07:39:57;;;;;;;22.17;19.33;;;6.70;93.00;13.90;98686.00;;;;5050525;28;20183;-66
2020/12/06 07:42:27;;;;;;;20.10;18.10;;;6.70;92.90;13.90;98673.00;;;;5050622;28;20648;-66
2020/12/06 07:44:55;;;;;;;19.75;17.65;;;6.70;92.90;14.00;98676.00;;;;5017309;28;20185;-66
2020/12/06 07:47:21;;;;;;;20.67;18.48;;;6.70;92.90;13.90;98677.00;;;;5033973;28;20263;-66
2020/12/06 07:49:56;;;;;;;20.80;18.60;;;6.70;92.90;14.10;98668.00;;;;5033703;28;20683;-66
2020/12/06 07:52:27;;;;;;;19.40;17.40;;;6.70;92.90;13.90;98657.00;;;;5033745;28;20611;-66
2020/12/06 07:54:57;;;;;;;19.85;17.75;;;6.70;92.90;13.90;98660.00;;;;5017712;28;20232;-66
2020/12/06 07:57:48;;;;;;;17.42;15.77;;;6.70;93.30;13.90;98668.00;;;;5017638;28;20206;-66
2020/12/06 08:00:22;;;;;;;20.15;17.95;;;6.70;92.90;14.00;98669.00;;;;5007955;28;20193;-66
2020/12/06 08:02:58;;;;;;;18.75;16.75;;;6.70;93.00;13.90;98670.00;;;;5033677;28;20193;-66
2020/12/06 08:05:29;;;;;;;20.13;18.05;;;6.70;92.90;13.80;98618.00;;;;5016257;28;20186;-66
2020/12/06 08:08:04;;;;;;;18.85;16.95;;;6.70;92.90;13.80;98670.00;;;;5034466;28;20181;-66
2020/12/06 08:10:30;;;;;;;18.52;16.63;;;6.70;92.90;14.00;98661.00;;;;5017072;28;20214;-66
2020/12/06 08:12:56;;;;;;;18.50;16.60;;;6.70;92.90;13.90;98664.00;;;;5032937;28;20190;-66
2020/12/06 08:15:25;;;;;;;18.33;15.97;;;6.70;92.90;13.80;98670.00;;;;5016959;28;20174;-66
2020/12/06 08:17:52;;;;;;;16.90;15.13;;;6.80;93.00;13.90;98653.00;;;;5028078;28;20186;-66
2020/12/06 08:20:22;;;;;;;18.88;16.92;;;6.80;93.00;14.00;98670.00;;;;5014100;28;20553;-65
2020/12/06 08:22:55;;;;;;;17.90;16.00;;;6.70;92.90;13.90;98644.00;;;;5040497;28;20175;-64
2020/12/06 08:25:29;;;;;;;18.98;16.85;;;6.80;93.10;14.00;98651.00;;;;5011507;28;20186;-65
2020/12/06 08:27:56;;;;;;;19.05;17.05;;;6.80;93.00;14.00;98645.00;;;;5014033;28;20190;-66
2020/12/06 08:30:27;;;;;;;17.83;16.02;;;6.80;93.40;14.00;98644.00;;;;5012445;28;20307;-66
2020/12/06 08:33:00;;;;;;;17.80;15.90;;;6.80;93.10;14.00;98641.00;;;;5012739;28;20630;-66
2020/12/06 08:35:51;;;;;;;16.63;14.95;;;6.80;93.10;14.00;98657.00;;;;4996457;28;20515;-66
2020/12/06 08:38:25;;;;;;;16.75;14.95;;;6.80;93.00;13.90;98649.00;;;;5012621;28;20210;-66
2020/12/06 08:41:10;;;;;;;16.90;15.30;;;6.80;93.10;14.00;98645.00;;;;5012957;28;20253;-66
2020/12/06 08:44:01;;;;;;;16.20;14.60;;;6.80;93.10;13.80;98635.00;;;;5013528;28;20278;-66
2020/12/06 08:46:27;;;;;;;17.00;15.20;;;6.80;93.10;13.80;98631.00;;;;5028737;28;20209;-66
2020/12/06 08:48:55;;;;;;;15.80;14.20;;;6.80;93.10;14.10;98663.00;;;;4995577;28;20190;-66
2020/12/06 08:51:37;;;;;;;17.58;15.73;;;6.80;93.10;14.10;98646.00;;;;5028359;28;20947;-66
2020/12/06 08:54:04;;;;;;;15.93;14.27;;;6.80;93.10;14.00;98641.00;;;;5029386;28;20200;-66
2020/12/06 08:56:32;;;;;;;16.67;14.40;;;6.80;93.10;14.00;98639.00;;;;5028771;28;20210;-66
2020/12/06 08:59:14;;;;;;;16.65;14.85;;;6.80;93.50;14.10;98653.00;;;;5028934;28;20171;-67
2020/12/06 09:01:54;;;;;;;16.73;14.93;;;6.80;93.10;14.10;98635.00;;;;5013778;28;20206;-66
2020/12/06 09:04:20;;;;;;;16.50;14.80;;;6.80;93.10;14.00;98643.00;;;;5010978;28;20233;-66
2020/12/06 09:06:46;;;;;;;16.20;14.02;;;6.80;93.10;14.10;98629.00;;;;5011416;28;20245;-66
2020/12/06 09:09:12;;;;;;;16.13;14.23;;;6.80;93.10;14.20;98632.00;;;;5011373;28;20202;-66
2020/12/06 09:11:38;;;;;;;15.60;14.00;;;6.80;93.10;14.10;98633.00;;;;5005595;28;20482;-69
2020/12/06 09:14:03;;;;;;;14.80;13.23;;;6.80;93.20;14.10;98646.00;;;;5031349;28;20419;-66
2020/12/06 09:16:29;;;;;;;16.40;14.70;;;6.90;93.60;14.20;98642.00;;;;5048319;28;20488;-67
2020/12/06 09:18:55;;;;;;;14.20;12.70;;;6.80;93.20;14.10;98639.00;;;;5030759;28;20214;-66
2020/12/06 09:21:20;;;;;;;15.50;13.83;;;6.90;93.20;14.30;98640.00;;;;5047898;28;20210;-67
2020/12/06 09:23:47;;;;;;;15.70;14.10;;;6.80;93.10;14.00;98651.00;;;;5049607;28;20189;-66
2020/12/06 09:26:13;;;;;;;14.68;13.10;;;6.90;93.20;14.10;98655.00;;;;5048212;28;20206;-66
2020/12/06 09:28:39;;;;;;;14.97;13.37;;;6.90;93.20;14.00;98657.00;;;;5031210;28;20605;-67
2020/12/06 09:31:04;;;;;;;15.27;13.77;;;6.90;93.20;14.20;98654.00;;;;5031561;28;20297;-66
2020/12/06 09:33:30;;;;;;;15.60;14.00;;;6.90;93.20;14.10;98659.00;;;;5030219;28;20182;-66
2020/12/06 09:35:56;;;;;;;14.27;12.87;;;6.90;93.20;14.00;98658.00;;;;5047468;28;20209;-66
2020/12/06 09:38:22;;;;;;;14.23;12.67;;;6.90;93.30;14.00;98660.00;;;;4998606;28;20367;-66
2020/12/06 09:40:48;;;;;;;14.90;13.07;;;6.90;93.30;13.90;98669.00;;;;4998616;28;20201;-66
2020/12/06 09:43:14;;;;;;;14.10;12.43;;;6.90;93.20;14.10;98670.00;;;;4997846;28;20419;-66
2020/12/06 09:45:41;;;;;;;14.03;12.53;;;6.90;93.20;13.90;98669.00;;;;5047802;28;20210;-67
2020/12/06 09:48:07;;;;;;;14.75;12.80;;;6.90;93.20;14.00;98664.00;;;;5031740;28;20184;-67
2020/12/06 09:50:33;;;;;;;14.60;12.80;;;6.90;93.20;14.00;98666.00;;;;5046526;28;20214;-66
2020/12/06 09:52:58;;;;;;;14.40;12.90;;;6.90;93.20;14.10;98676.00;;;;5014992;28;20182;-66
2020/12/06 09:55:24;;;;;;;13.90;12.50;;;6.90;93.20;14.00;98661.00;;;;5030221;28;20196;-66
2020/12/06 09:57:50;;;;;;;13.97;12.23;;;6.90;93.20;14.00;98670.00;;;;5031380;28;20371;-67
2020/12/06 10:00:15;;;;;;;13.97;12.37;;;6.90;93.20;14.10;98676.00;;;;5047758;28;20185;-66
2020/12/06 10:02:44;;;;;;;13.73;12.33;;;6.90;93.20;14.10;98667.00;;;;5047146;28;20202;-66
2020/12/06 10:05:11;;;;;;;13.43;12.10;;;6.90;93.20;13.90;98669.00;;;;5048010;28;20186;-66
2020/12/06 10:07:37;;;;;;;13.18;11.93;;;6.90;93.30;14.00;98667.00;;;;5031037;28;20198;-66
2020/12/06 10:10:05;;;;;;;14.13;12.75;;;6.90;93.20;14.00;98656.00;;;;5048548;28;20247;-66
2020/12/06 10:12:31;;;;;;;14.13;12.63;;;6.90;93.20;14.00;98661.00;;;;4997640;28;20195;-68
2020/12/06 10:14:56;;;;;;;14.50;13.10;;;6.90;93.20;14.00;98648.00;;;;5027938;28;20183;-66
2020/12/06 10:17:22;;;;;;;13.73;12.33;;;6.90;93.20;14.00;98658.00;;;;5011635;28;20202;-67
2020/12/06 10:19:48;;;;;;;14.50;13.00;;;6.90;93.20;14.20;98655.00;;;;5031717;28;20262;-66
2020/12/06 10:22:13;;;;;;;14.40;12.90;;;6.90;93.20;14.20;98650.00;;;;5033189;28;20194;-67
2020/12/06 10:24:39;;;;;;;13.97;12.47;;;6.90;93.20;14.20;98647.00;;;;5033259;28;20183;-66
2020/12/06 10:27:05;;;;;;;14.47;12.97;;;6.90;93.20;14.00;98649.00;;;;5033347;28;20230;-67
2020/12/06 10:29:31;;;;;;;13.80;12.40;;;6.90;93.30;14.30;98650.00;;;;5032251;28;20237;-66
2020/12/06 10:31:59;;;;;;;14.20;12.80;;;6.90;93.20;14.10;98643.00;;;;5033048;28;20206;-66
2020/12/06 10:34:25;;;;;;;12.68;11.38;;;6.90;93.20;14.10;98639.00;;;;5031866;28;21019;-66
2020/12/06 10:36:52;;;;;;;13.27;11.90;;;6.90;93.20;14.10;98641.00;;;;5032026;28;20297;-67
2020/12/06 10:39:20;;;;;;;13.77;12.38;;;6.90;93.20;14.00;98626.00;;;;5031869;28;20956;-67
2020/12/06 10:41:54;;;;;;;14.60;13.15;;;7.00;93.30;14.20;98616.00;;;;5031997;28;20264;-66
2020/12/06 10:44:20;;;;;;;15.00;13.60;;;7.00;93.30;14.10;98621.00;;;;5033553;28;20179;-66
2020/12/06 10:46:46;;;;;;;13.50;12.07;;;7.00;93.30;14.20;98611.00;;;;5031374;28;20195;-66
2020/12/06 10:49:13;;;;;;;15.47;12.67;;;7.00;93.30;14.10;98612.00;;;;5032012;28;20183;-66